Time;durP1;ratioP1;P1;durP2;ratioP2;P2;SDS_P1;SDS_P2;PMS_P1;PMS_P2;Temp;Humidity;BMP_temperature;BMP_pressure;BME280_temperature;BME280_humidity;BME280_pressure;Samples;Min_cycle;Max_cycle;Signal;HPM_P1;HPM_P2
2023/07/28 00:01:08;;;;;;;;;;;;;;;;;;6268513;28;20371;-61
2023/07/28 00:04:10;;;;;;;;;;;;;;;;;;6271986;28;19929;-60
2023/07/28 00:07:10;;;;;;;;;;;;;;;;;;6272293;28;19924;-60
2023/07/28 00:10:11;;;;;;;;;;;;;;;;;;6270530;28;19970;-60
2023/07/28 00:13:12;;;;;;;;;;;;;;;;;;6270455;28;19932;-61
2023/07/28 00:16:12;;;;;;;;;;;;;;;;;;6280882;28;20371;-60
2023/07/28 00:19:13;;;;;;;;;;;;;;;;;;6275510;28;20138;-61
2023/07/28 00:22:13;;;;;;;;;;;;;;;;;;6280516;28;19925;-60
2023/07/28 00:25:14;;;;;;;;;;;;;;;;;;6274349;28;20386;-60
2023/07/28 00:28:14;;;;;;;;;;;;;;;;;;6272173;28;20366;-60
2023/07/28 00:31:15;;;;;;;;;;;;;;;;;;6273885;28;20409;-60
2023/07/28 00:34:15;;;;;;;;;;;;;;;;;;6265892;28;20330;-61
2023/07/28 00:37:16;;;;;;;;;;;;;;;;;;6268177;28;19939;-60
2023/07/28 00:40:16;;;;;;;;;;;;;;;;;;6270463;28;20394;-60
2023/07/28 00:43:17;;;;;;;;;;;;;;;;;;6268618;28;19920;-60
2023/07/28 00:46:17;;;;;;;;;;;;;;;;;;6267134;28;20336;-60
2023/07/28 00:49:18;;;;;;;;;;;;;;;;;;6268257;28;19931;-60
2023/07/28 00:52:18;;;;;;;;;;;;;;;;;;6282710;28;20330;-60
2023/07/28 00:55:19;;;;;;;;;;;;;;;;;;6270876;28;19969;-60
2023/07/28 00:58:20;;;;;;;;;;;;;;;;;;6276096;28;19978;-61
2023/07/28 01:01:20;;;;;;;;;;;;;;;;;;6268143;28;20402;-60
2023/07/28 01:04:21;;;;;;;;;;;;;;;;;;6271648;28;19932;-61
2023/07/28 01:07:25;;;;;;;;;;;;;;;;;;6273051;28;19932;-61
2023/07/28 01:10:29;;;;;;;;;;;;;;;;;;6273968;28;19931;-61
2023/07/28 01:13:30;;;;;;;;;;;;;;;;;;6271533;28;19920;-60
2023/07/28 01:16:30;;;;;;;;;;;;;;;;;;6278739;28;20291;-60
2023/07/28 01:19:31;;;;;;;;;;;;;;;;;;6273150;28;19935;-60
2023/07/28 01:22:34;;;;;;;;;;;;;;;;;;6272700;28;20318;-61
2023/07/28 01:25:47;;;;;;;;;;;;;;;;;;6275504;28;19960;-61
2023/07/28 01:28:47;;;;;;;;;;;;;;;;;;6279476;28;19931;-60
2023/07/28 01:31:48;;;;;;;;;;;;;;;;;;6281667;28;19925;-60
2023/07/28 01:34:48;;;;;;;;;;;;;;;;;;6279155;28;19925;-60
2023/07/28 01:37:50;;;;;;;;;;;;;;;;;;6273776;28;19928;-60
2023/07/28 01:40:51;;;;;;;;;;;;;;;;;;6275042;28;20389;-60
2023/07/28 01:43:55;;;;;;;;;;;;;;;;;;6287452;28;19921;-61
2023/07/28 01:46:56;;;;;;;;;;;;;;;;;;6275382;28;20436;-60
2023/07/28 01:49:56;;;;;;;;;;;;;;;;;;6283623;28;19924;-60
2023/07/28 01:52:57;;;;;;;;;;;;;;;;;;6275945;28;20498;-61
2023/07/28 01:55:57;;;;;;;;;;;;;;;;;;6274828;28;19921;-61
2023/07/28 01:58:58;;;;;;;;;;;;;;;;;;6274682;28;19929;-60
2023/07/28 02:01:58;;;;;;;;;;;;;;;;;;6275451;28;20376;-60
2023/07/28 02:04:59;;;;;;;;;;;;;;;;;;6272169;28;19929;-60
2023/07/28 02:07:59;;;;;;;;;;;;;;;;;;6274661;28;19925;-61
2023/07/28 02:11:00;;;;;;;;;;;;;;;;;;6275336;28;19938;-61
2023/07/28 02:14:00;;;;;;;;;;;;;;;;;;6273474;28;19924;-60
2023/07/28 02:17:01;;;;;;;;;;;;;;;;;;6277595;28;20328;-60
2023/07/28 02:20:03;;;;;;;;;;;;;;;;;;6272552;28;19931;-61
2023/07/28 02:23:03;;;;;;;;;;;;;;;;;;6273304;28;19921;-60
2023/07/28 02:26:04;;;;;;;;;;;;;;;;;;6274045;28;19920;-61
2023/07/28 02:29:04;;;;;;;;;;;;;;;;;;6274218;28;19970;-61
2023/07/28 02:32:05;;;;;;;;;;;;;;;;;;6270900;28;19931;-61
2023/07/28 02:35:06;;;;;;;;;;;;;;;;;;6276365;28;19946;-61
2023/07/28 02:38:06;;;;;;;;;;;;;;;;;;6273290;28;19925;-60
2023/07/28 02:41:07;;;;;;;;;;;;;;;;;;6272914;28;20051;-60
2023/07/28 02:44:07;;;;;;;;;;;;;;;;;;6270643;28;19920;-61
2023/07/28 02:47:08;;;;;;;;;;;;;;;;;;6274311;28;20330;-61
2023/07/28 02:50:08;;;;;;;;;;;;;;;;;;6280065;28;20397;-61
2023/07/28 02:53:09;;;;;;;;;;;;;;;;;;6288680;28;20021;-61
2023/07/28 02:56:09;;;;;;;;;;;;;;;;;;6274272;28;19931;-60
2023/07/28 02:59:10;;;;;;;;;;;;;;;;;;6272622;28;19931;-61
2023/07/28 03:02:10;;;;;;;;;;;;;;;;;;6270277;28;19920;-60
2023/07/28 03:05:11;;;;;;;;;;;;;;;;;;6272008;28;19920;-60
2023/07/28 03:08:11;;;;;;;;;;;;;;;;;;6272382;28;19967;-60
2023/07/28 03:11:12;;;;;;;;;;;;;;;;;;6273685;28;19925;-61
2023/07/28 03:14:12;;;;;;;;;;;;;;;;;;6273905;28;19924;-61
2023/07/28 03:17:13;;;;;;;;;;;;;;;;;;6272370;28;19929;-61
2023/07/28 03:20:14;;;;;;;;;;;;;;;;;;6269772;28;19925;-61
2023/07/28 03:23:14;;;;;;;;;;;;;;;;;;6269980;28;19925;-61
2023/07/28 03:26:15;;;;;;;;;;;;;;;;;;6277426;28;20383;-61
2023/07/28 03:29:15;;;;;;;;;;;;;;;;;;6291781;28;20073;-61
2023/07/28 03:32:16;;;;;;;;;;;;;;;;;;6272782;28;19932;-61
2023/07/28 03:35:16;;;;;;;;;;;;;;;;;;6271173;28;19986;-61
2023/07/28 03:38:18;;;;;;;;;;;;;;;;;;6272948;28;19921;-61
2023/07/28 03:41:19;;;;;;;;;;;;;;;;;;6267708;28;19931;-61
2023/07/28 03:44:19;;;;;;;;;;;;;;;;;;6271321;28;20334;-61
2023/07/28 03:47:20;;;;;;;;;;;;;;;;;;6271878;28;20394;-61
2023/07/28 03:50:20;;;;;;;;;;;;;;;;;;6271047;28;19924;-61
2023/07/28 03:53:21;;;;;;;;;;;;;;;;;;6268497;28;19921;-61
2023/07/28 03:56:21;;;;;;;;;;;;;;;;;;6270835;28;19974;-61
2023/07/28 03:59:22;;;;;;;;;;;;;;;;;;6270231;28;19934;-61
2023/07/28 04:02:22;;;;;;;;;;;;;;;;;;6271214;28;19936;-61
2023/07/28 04:05:23;;;;;;;;;;;;;;;;;;6269836;28;19928;-61
2023/07/28 04:08:23;;;;;;;;;;;;;;;;;;6271435;28;20322;-61
2023/07/28 04:11:24;;;;;;;;;;;;;;;;;;6270736;28;19928;-61
2023/07/28 04:14:24;;;;;;;;;;;;;;;;;;6270086;28;19928;-61
2023/07/28 04:17:25;;;;;;;;;;;;;;;;;;6269629;28;19920;-61
2023/07/28 04:20:25;;;;;;;;;;;;;;;;;;6268527;28;19932;-61
2023/07/28 04:23:26;;;;;;;;;;;;;;;;;;6266204;28;20023;-61
2023/07/28 04:26:26;;;;;;;;;;;;;;;;;;6269342;28;19928;-61
2023/07/28 04:29:27;;;;;;;;;;;;;;;;;;6271012;28;19921;-61
2023/07/28 04:32:27;;;;;;;;;;;;;;;;;;6267189;28;19924;-61
2023/07/28 04:35:29;;;;;;;;;;;;;;;;;;6272529;28;20390;-61
2023/07/28 04:38:30;;;;;;;;;;;;;;;;;;6268306;28;19920;-63
2023/07/28 04:41:30;;;;;;;;;;;;;;;;;;6271032;28;19920;-62
2023/07/28 04:44:31;;;;;;;;;;;;;;;;;;6269331;28;19940;-60
2023/07/28 04:47:31;;;;;;;;;;;;;;;;;;6273103;28;19947;-61
2023/07/28 04:50:33;;;;;;;;;;;;;;;;;;6276144;28;20283;-61
2023/07/28 04:53:34;;;;;;;;;;;;;;;;;;6274483;28;20515;-61
2023/07/28 04:56:34;;;;;;;;;;;;;;;;;;6277584;28;19947;-61
2023/07/28 04:59:35;;;;;;;;;;;;;;;;;;6273827;28;20405;-61
2023/07/28 05:02:35;;;;;;;;;;;;;;;;;;6274076;28;19924;-61
2023/07/28 05:05:36;;;;;;;;;;;;;;;;;;6270984;28;19924;-61
2023/07/28 05:08:36;;;;;;;;;;;;;;;;;;6272493;28;19978;-60
2023/07/28 05:11:37;;;;;;;;;;;;;;;;;;6275111;28;19924;-61
2023/07/28 05:14:37;;;;;;;;;;;;;;;;;;6275174;28;19956;-61
2023/07/28 05:17:37;;;;;;;;;;;;;;;;;;6271160;28;19966;-61
2023/07/28 05:20:38;;;;;;;;;;;;;;;;;;6273029;28;20277;-61
2023/07/28 05:23:39;;;;;;;;;;;;;;;;;;6272184;28;21094;-61
2023/07/28 05:26:39;;;;;;;;;;;;;;;;;;6275037;28;19920;-61
2023/07/28 05:29:40;;;;;;;;;;;;;;;;;;6272979;28;20376;-61
2023/07/28 05:32:40;;;;;;;;;;;;;;;;;;6273255;28;19924;-60
2023/07/28 05:35:41;;;;;;;;;;;;;;;;;;6276140;28;19924;-61
2023/07/28 05:38:41;;;;;;;;;;;;;;;;;;6272916;28;19925;-60
2023/07/28 05:41:42;;;;;;;;;;;;;;;;;;6273784;28;20353;-60
2023/07/28 05:44:42;;;;;;;;;;;;;;;;;;6277454;28;19924;-60
2023/07/28 05:47:43;;;;;;;;;;;;;;;;;;6290655;28;19924;-60
2023/07/28 05:50:43;;;;;;;;;;;;;;;;;;6274568;28;19920;-60
2023/07/28 05:53:44;;;;;;;;;;;;;;;;;;6274115;28;19924;-60
2023/07/28 05:56:44;;;;;;;;;;;;;;;;;;6273238;28;19931;-60
2023/07/28 05:59:45;;;;;;;;;;;;;;;;;;6273920;28;19921;-61
2023/07/28 06:02:46;;;;;;;;;;;;;;;;;;6272418;28;19932;-61
2023/07/28 06:05:48;;;;;;;;;;;;;;;;;;6270966;28;19932;-61
2023/07/28 06:08:48;;;;;;;;;;;;;;;;;;6272870;28;19920;-60
2023/07/28 06:11:49;;;;;;;;;;;;;;;;;;6272142;28;19928;-60
2023/07/28 06:14:49;;;;;;;;;;;;;;;;;;6274749;28;19924;-61
2023/07/28 06:17:50;;;;;;;;;;;;;;;;;;6272964;28;19920;-60
2023/07/28 06:20:50;;;;;;;;;;;;;;;;;;6271889;28;19924;-60
2023/07/28 06:23:51;;;;;;;;;;;;;;;;;;6274209;28;20441;-60
2023/07/28 06:26:51;;;;;;;;;;;;;;;;;;6274397;28;20261;-61
2023/07/28 06:29:52;;;;;;;;;;;;;;;;;;6273007;28;19940;-61
2023/07/28 06:32:52;;;;;;;;;;;;;;;;;;6270385;28;19929;-60
2023/07/28 06:35:53;;;;;;;;;;;;;;;;;;6273016;28;20350;-60
2023/07/28 06:38:55;;;;;;;;;;;;;;;;;;6271436;28;19924;-60
2023/07/28 06:41:55;;;;;;;;;;;;;;;;;;6269569;28;20455;-61
2023/07/28 06:44:56;;;;;;;;;;;;;;;;;;6272407;28;19977;-61
2023/07/28 06:47:57;;;;;;;;;;;;;;;;;;6271252;28;20406;-61
2023/07/28 06:50:57;;;;;;;;;;;;;;;;;;6272624;28;19921;-61
2023/07/28 06:53:58;;;;;;;;;;;;;;;;;;6272680;28;19933;-60
2023/07/28 06:56:58;;;;;;;;;;;;;;;;;;6271426;28;19990;-60
2023/07/28 07:00:00;;;;;;;;;;;;;;;;;;6272313;28;19928;-60
2023/07/28 07:03:00;;;;;;;;;;;;;;;;;;6271578;28;20419;-60
2023/07/28 07:06:01;;;;;;;;;;;;;;;;;;6271650;28;19925;-60
2023/07/28 07:09:03;;;;;;;;;;;;;;;;;;6272915;28;19924;-61
2023/07/28 07:12:04;;;;;;;;;;;;;;;;;;6271646;28;19926;-60
2023/07/28 07:15:05;;;;;;;;;;;;;;;;;;6271535;28;20322;-60
2023/07/28 07:18:06;;;;;;;;;;;;;;;;;;6271950;28;20407;-60
2023/07/28 07:21:06;;;;;;;;;;;;;;;;;;6271228;28;19924;-60
2023/07/28 07:24:07;;;;;;;;;;;;;;;;;;6270056;28;19928;-60
2023/07/28 07:27:10;;;;;;;;;;;;;;;;;;6272180;28;19967;-60
2023/07/28 07:30:11;;;;;;;;;;;;;;;;;;6272699;28;20434;-60
2023/07/28 07:33:11;;;;;;;;;;;;;;;;;;6271289;28;19928;-60
2023/07/28 07:36:16;;;;;;;;;;;;;;;;;;6271276;28;19924;-61
2023/07/28 07:39:16;;;;;;;;;;;;;;;;;;6269498;28;19979;-60
2023/07/28 07:42:16;;;;;;;;;;;;;;;;;;6268864;28;19921;-60
2023/07/28 07:45:17;;;;;;;;;;;;;;;;;;6287743;28;20381;-60
2023/07/28 07:48:17;;;;;;;;;;;;;;;;;;6275791;28;19924;-60
2023/07/28 07:51:18;;;;;;;;;;;;;;;;;;6270102;28;19927;-60
2023/07/28 07:54:19;;;;;;;;;;;;;;;;;;6269968;28;20321;-60
2023/07/28 07:57:19;;;;;;;;;;;;;;;;;;6269590;28;19932;-60
2023/07/28 08:00:20;;;;;;;;;;;;;;;;;;6270924;28;19927;-60
2023/07/28 08:03:20;;;;;;;;;;;;;;;;;;6268690;28;19928;-61
2023/07/28 08:06:21;;;;;;;;;;;;;;;;;;6269180;28;20387;-61
2023/07/28 08:09:21;;;;;;;;;;;;;;;;;;6272409;28;20383;-62
2023/07/28 08:12:22;;;;;;;;;;;;;;;;;;6270736;28;20444;-61
2023/07/28 08:15:22;;;;;;;;;;;;;;;;;;6268958;28;19924;-61
2023/07/28 08:18:23;;;;;;;;;;;;;;;;;;6267465;28;19924;-62
2023/07/28 08:21:24;;;;;;;;;;;;;;;;;;6268670;28;19982;-62
2023/07/28 08:24:24;;;;;;;;;;;;;;;;;;6270185;28;20510;-62
2023/07/28 08:27:25;;;;;;;;;;;;;;;;;;6270330;28;19932;-61
2023/07/28 08:30:25;;;;;;;;;;;;;;;;;;6269918;28;19924;-61
2023/07/28 08:33:26;;;;;;;;;;;;;;;;;;6269513;28;19928;-61
2023/07/28 08:36:26;;;;;;;;;;;;;;;;;;6269044;28;21054;-62
2023/07/28 08:39:27;;;;;;;;;;;;;;;;;;6269176;28;19920;-61
2023/07/28 08:42:35;;;;;;;;;;;;;;;;;;6270125;28;19920;-61
2023/07/28 08:45:35;;;;;;;;;;;;;;;;;;6270387;28;19974;-61
2023/07/28 08:48:36;;;;;;;;;;;;;;;;;;6268808;28;19924;-62
2023/07/28 08:51:40;;;;;;;;;;;;;;;;;;6268689;28;19920;-61
2023/07/28 08:54:41;;;;;;;;;;;;;;;;;;6268483;28;19928;-61
2023/07/28 08:57:41;;;;;;;;;;;;;;;;;;6270412;28;19921;-62
2023/07/28 09:00:42;;;;;;;;;;;;;;;;;;6268025;28;20432;-61
2023/07/28 09:03:43;;;;;;;;;;;;;;;;;;6267071;28;19924;-61
2023/07/28 09:06:44;;;;;;;;;;;;;;;;;;6270188;28;20015;-61
2023/07/28 09:09:46;;;;;;;;;;;;;;;;;;6267685;28;19921;-62
2023/07/28 09:12:50;;;;;;;;;;;;;;;;;;6269147;28;20421;-61
2023/07/28 09:15:50;;;;;;;;;;;;;;;;;;6271970;28;20007;-62
2023/07/28 09:18:51;;;;;;;;;;;;;;;;;;6270640;28;20267;-61
2023/07/28 09:22:02;;;;;;;;;;;;;;;;;;6268166;28;20287;-62
2023/07/28 09:25:10;;;;;;;;;;;;;;;;;;6268640;28;20083;-62
2023/07/28 09:28:12;;;;;;;;;;;;;;;;;;6269027;28;19966;-61
2023/07/28 09:31:14;;;;;;;;;;;;;;;;;;6269303;28;20387;-62
2023/07/28 09:34:24;;;;;;;;;;;;;;;;;;6269396;28;19951;-62
2023/07/28 09:37:25;;;;;;;;;;;;;;;;;;6273785;28;19921;-61
2023/07/28 09:40:27;;;;;;;;;;;;;;;;;;6274572;28;19931;-62
2023/07/28 09:43:27;;;;;;;;;;;;;;;;;;6274265;28;19920;-61
2023/07/28 09:46:29;;;;;;;;;;;;;;;;;;6272984;28;20279;-62
2023/07/28 09:49:32;;;;;;;;;;;;;;;;;;6274960;28;20482;-62
2023/07/28 09:52:35;;;;;;;;;;;;;;;;;;6273927;28;20011;-62
2023/07/28 09:55:38;;;;;;;;;;;;;;;;;;6273537;28;20243;-61
2023/07/28 09:58:41;;;;;;;;;;;;;;;;;;6272666;28;20473;-61
2023/07/28 10:01:42;;;;;;;;;;;;;;;;;;6269831;28;19970;-62
2023/07/28 10:04:43;;;;;;;;;;;;;;;;;;6272891;28;19924;-61
2023/07/28 10:07:44;;;;;;;;;;;;;;;;;;6276087;28;19935;-62
2023/07/28 10:10:45;;;;;;;;;;;;;;;;;;6272293;28;20015;-61
2023/07/28 10:13:47;;;;;;;;;;;;;;;;;;6271304;28;19924;-61
2023/07/28 10:16:47;;;;;;;;;;;;;;;;;;6272286;28;19944;-62
2023/07/28 10:19:48;;;;;;;;;;;;;;;;;;6274948;28;19921;-62
2023/07/28 10:22:48;;;;;;;;;;;;;;;;;;6273183;28;19921;-62
2023/07/28 10:26:07;;;;;;;;;;;;;;;;;;6271581;28;19929;-61
2023/07/28 10:29:12;;;;;;;;;;;;;;;;;;6273540;28;19924;-61
2023/07/28 10:32:24;;;;;;;;;;;;;;;;;;6272157;27;19976;-61
2023/07/28 10:35:26;;;;;;;;;;;;;;;;;;6273064;28;19930;-61
2023/07/28 10:38:31;;;;;;;;;;;;;;;;;;6273097;28;19927;-62
2023/07/28 10:41:34;;;;;;;;;;;;;;;;;;6272453;28;19924;-61
2023/07/28 10:44:35;;;;;;;;;;;;;;;;;;6266899;28;19930;-61
2023/07/28 10:47:36;;;;;;;;;;;;;;;;;;6268376;28;19986;-61
2023/07/28 10:50:36;;;;;;;;;;;;;;;;;;6274121;28;20296;-62
2023/07/28 10:53:37;;;;;;;;;;;;;;;;;;6273592;28;21810;-62
2023/07/28 10:56:38;;;;;;;;;;;;;;;;;;6270079;28;19973;-62
2023/07/28 10:59:39;;;;;;;;;;;;;;;;;;6303427;28;20284;-62
2023/07/28 11:02:43;;;;;;;;;;;;;;;;;;6270400;28;19925;-62
2023/07/28 11:05:43;;;;;;;;;;;;;;;;;;6273148;28;19924;-62
2023/07/28 11:08:44;;;;;;;;;;;;;;;;;;6271037;28;19967;-61
2023/07/28 11:11:46;;;;;;;;;;;;;;;;;;6272435;28;19935;-61
2023/07/28 11:14:47;;;;;;;;;;;;;;;;;;6270841;28;19926;-61
2023/07/28 11:17:49;;;;;;;;;;;;;;;;;;6271224;28;19920;-62
2023/07/28 11:20:50;;;;;;;;;;;;;;;;;;6271580;28;19924;-61
2023/07/28 11:23:50;;;;;;;;;;;;;;;;;;6271873;28;19943;-62
2023/07/28 11:26:51;;;;;;;;;;;;;;;;;;6289637;28;19924;-62
2023/07/28 11:29:53;;;;;;;;;;;;;;;;;;6279060;28;19924;-62
2023/07/28 11:32:53;;;;;;;;;;;;;;;;;;6270548;28;19925;-62
2023/07/28 11:35:54;;;;;;;;;;;;;;;;;;6272520;28;20292;-62
2023/07/28 11:38:55;;;;;;;;;;;;;;;;;;6271620;28;19924;-62
2023/07/28 11:41:56;;;;;;;;;;;;;;;;;;6271212;28;19947;-62
2023/07/28 11:44:57;;;;;;;;;;;;;;;;;;6271260;28;19968;-62
2023/07/28 11:47:57;;;;;;;;;;;;;;;;;;6269134;28;19926;-62
2023/07/28 11:50:58;;;;;;;;;;;;;;;;;;6271716;28;19960;-62
2023/07/28 11:53:58;;;;;;;;;;;;;;;;;;6269452;28;20356;-61
2023/07/28 11:56:59;;;;;;;;;;;;;;;;;;6270301;28;20338;-62
2023/07/28 11:59:59;;;;;;;;;;;;;;;;;;6268340;28;19924;-63
2023/07/28 12:03:04;;;;;;;;;;;;;;;;;;6269392;28;19928;-62
2023/07/28 12:06:09;;;;;;;;;;;;;;;;;;6267025;28;20299;-62
2023/07/28 12:09:11;;;;;;;;;;;;;;;;;;6270488;28;19921;-62
2023/07/28 12:12:15;;;;;;;;;;;;;;;;;;6270117;28;19931;-62
2023/07/28 12:15:31;;;;;;;;;;;;;;;;;;6280811;28;19924;-62
2023/07/28 12:18:31;;;;;;;;;;;;;;;;;;6282073;28;19960;-62
2023/07/28 12:21:32;;;;;;;;;;;;;;;;;;6271504;28;20023;-62
2023/07/28 12:24:32;;;;;;;;;;;;;;;;;;6267947;28;20395;-62
2023/07/28 12:27:33;;;;;;;;;;;;;;;;;;6268649;28;19924;-62
2023/07/28 12:30:35;;;;;;;;;;;;;;;;;;6268833;28;20316;-62
2023/07/28 12:33:35;;;;;;;;;;;;;;;;;;6267462;28;20074;-62
2023/07/28 12:36:36;;;;;;;;;;;;;;;;;;6270394;28;19929;-62
2023/07/28 12:39:38;;;;;;;;;;;;;;;;;;6267847;28;19931;-62
2023/07/28 12:42:39;;;;;;;;;;;;;;;;;;6270372;28;20304;-62
2023/07/28 12:45:39;;;;;;;;;;;;;;;;;;6271079;28;19931;-62
2023/07/28 12:48:40;;;;;;;;;;;;;;;;;;6270142;28;19924;-62
2023/07/28 12:51:41;;;;;;;;;;;;;;;;;;6273419;28;20039;-62
2023/07/28 12:54:42;;;;;;;;;;;;;;;;;;6289045;28;19930;-62
2023/07/28 12:57:43;;;;;;;;;;;;;;;;;;6268786;28;20051;-62
2023/07/28 13:00:44;;;;;;;;;;;;;;;;;;6270185;28;20001;-62
2023/07/28 13:03:44;;;;;;;;;;;;;;;;;;6269646;28;19925;-62
2023/07/28 13:06:45;;;;;;;;;;;;;;;;;;6270716;28;19932;-61
2023/07/28 13:09:45;;;;;;;;;;;;;;;;;;6272417;28;19929;-62
2023/07/28 13:12:46;;;;;;;;;;;;;;;;;;6272516;28;20368;-62
2023/07/28 13:15:46;;;;;;;;;;;;;;;;;;6272945;28;19924;-61
2023/07/28 13:18:47;;;;;;;;;;;;;;;;;;6273896;28;19921;-61
2023/07/28 13:21:48;;;;;;;;;;;;;;;;;;6281261;28;20363;-62
2023/07/28 13:24:48;;;;;;;;;;;;;;;;;;6291557;28;19920;-61
2023/07/28 13:27:49;;;;;;;;;;;;;;;;;;6268848;28;20641;-61
2023/07/28 13:30:50;;;;;;;;;;;;;;;;;;6271359;28;19924;-61
2023/07/28 13:33:50;;;;;;;;;;;;;;;;;;6275903;28;19942;-61
2023/07/28 13:36:51;;;;;;;;;;;;;;;;;;6272891;28;19925;-61
2023/07/28 13:39:52;;;;;;;;;;;;;;;;;;6273518;28;19925;-60
2023/07/28 13:42:53;;;;;;;;;;;;;;;;;;6274051;28;20383;-60
2023/07/28 13:45:53;;;;;;;;;;;;;;;;;;6273622;28;19971;-61
2023/07/28 13:48:54;;;;;;;;;;;;;;;;;;6270008;28;19927;-62
2023/07/28 13:51:55;;;;;;;;;;;;;;;;;;6274595;28;19935;-62
2023/07/28 13:54:55;;;;;;;;;;;;;;;;;;6272568;28;20018;-61
2023/07/28 13:57:56;;;;;;;;;;;;;;;;;;6272431;28;19971;-60
2023/07/28 14:00:56;;;;;;;;;;;;;;;;;;6275322;28;20141;-62
2023/07/28 14:03:57;;;;;;;;;;;;;;;;;;6272571;28;19927;-61
2023/07/28 14:06:58;;;;;;;;;;;;;;;;;;6275387;28;20338;-62
2023/07/28 14:09:59;;;;;;;;;;;;;;;;;;6276958;28;20398;-61
2023/07/28 14:12:59;;;;;;;;;;;;;;;;;;6276155;28;19925;-61
2023/07/28 14:16:00;;;;;;;;;;;;;;;;;;6273654;28;19928;-61
2023/07/28 14:19:01;;;;;;;;;;;;;;;;;;6270002;28;20029;-61
2023/07/28 14:22:02;;;;;;;;;;;;;;;;;;6272048;28;19994;-62
2023/07/28 14:25:03;;;;;;;;;;;;;;;;;;6271526;28;19933;-62
2023/07/28 14:28:03;;;;;;;;;;;;;;;;;;6268840;28;19928;-62
2023/07/28 14:31:04;;;;;;;;;;;;;;;;;;6271613;28;19933;-62
2023/07/28 14:34:05;;;;;;;;;;;;;;;;;;6270095;28;19924;-62
2023/07/28 14:37:05;;;;;;;;;;;;;;;;;;6268163;28;19943;-62
2023/07/28 14:40:06;;;;;;;;;;;;;;;;;;6277474;28;20087;-62
2023/07/28 14:43:07;;;;;;;;;;;;;;;;;;6282613;28;19981;-61
2023/07/28 14:46:07;;;;;;;;;;;;;;;;;;6279749;28;19928;-62
2023/07/28 14:49:08;;;;;;;;;;;;;;;;;;6279676;28;20295;-61
2023/07/28 14:52:09;;;;;;;;;;;;;;;;;;6281045;28;19924;-61
2023/07/28 14:55:09;;;;;;;;;;;;;;;;;;6283807;28;20505;-60
2023/07/28 14:58:10;;;;;;;;;;;;;;;;;;6280374;28;20377;-61
2023/07/28 15:01:10;;;;;;;;;;;;;;;;;;6283542;28;19928;-62
2023/07/28 15:04:13;;;;;;;;;;;;;;;;;;6283133;28;20368;-62
2023/07/28 15:07:14;;;;;;;;;;;;;;;;;;6280502;28;19947;-62
2023/07/28 15:10:15;;;;;;;;;;;;;;;;;;6282444;28;20341;-62
2023/07/28 15:13:15;;;;;;;;;;;;;;;;;;6284034;28;19939;-62
2023/07/28 15:16:16;;;;;;;;;;;;;;;;;;6282112;28;20386;-61
2023/07/28 15:19:16;;;;;;;;;;;;;;;;;;6278778;28;19981;-63
2023/07/28 15:22:17;;;;;;;;;;;;;;;;;;6282391;28;19966;-62
2023/07/28 15:25:17;;;;;;;;;;;;;;;;;;6277567;28;20402;-62
2023/07/28 15:28:18;;;;;;;;;;;;;;;;;;6269843;28;20275;-62
2023/07/28 15:31:19;;;;;;;;;;;;;;;;;;6276311;28;19939;-61
2023/07/28 15:34:20;;;;;;;;;;;;;;;;;;6288878;28;19931;-62
2023/07/28 15:37:21;;;;;;;;;;;;;;;;;;6273144;28;20019;-62
2023/07/28 15:40:22;;;;;;;;;;;;;;;;;;6269164;28;20019;-62
2023/07/28 15:43:22;;;;;;;;;;;;;;;;;;6275770;28;19935;-62
2023/07/28 15:46:23;;;;;;;;;;;;;;;;;;6285257;28;19924;-62
2023/07/28 15:49:23;;;;;;;;;;;;;;;;;;6267872;28;19928;-62
2023/07/28 15:52:24;;;;;;;;;;;;;;;;;;6271861;28;20333;-62
2023/07/28 15:55:24;;;;;;;;;;;;;;;;;;6269020;28;19924;-62
2023/07/28 15:58:25;;;;;;;;;;;;;;;;;;6268696;28;20608;-62
2023/07/28 16:01:25;;;;;;;;;;;;;;;;;;6269384;28;19924;-62
2023/07/28 16:04:26;;;;;;;;;;;;;;;;;;6268980;28;19959;-62
2023/07/28 16:07:28;;;;;;;;;;;;;;;;;;6269803;28;19925;-61
2023/07/28 16:10:29;;;;;;;;;;;;;;;;;;6271461;28;20206;-61
2023/07/28 16:13:31;;;;;;;;;;;;;;;;;;6268678;28;19921;-60
2023/07/28 16:16:32;;;;;;;;;;;;;;;;;;6268759;28;19929;-61
2023/07/28 16:19:32;;;;;;;;;;;;;;;;;;6269696;28;20391;-62
2023/07/28 16:22:33;;;;;;;;;;;;;;;;;;6270791;28;19931;-62
2023/07/28 16:25:33;;;;;;;;;;;;;;;;;;6268282;28;19924;-62
2023/07/28 16:28:34;;;;;;;;;;;;;;;;;;6268142;28;19924;-61
2023/07/28 16:31:34;;;;;;;;;;;;;;;;;;6269712;28;19924;-62
2023/07/28 16:34:36;;;;;;;;;;;;;;;;;;6274941;28;20395;-61
2023/07/28 16:37:36;;;;;;;;;;;;;;;;;;6290509;28;19921;-61
2023/07/28 16:40:37;;;;;;;;;;;;;;;;;;6270158;28;20299;-62
2023/07/28 16:43:37;;;;;;;;;;;;;;;;;;6268609;28;19928;-62
2023/07/28 16:46:38;;;;;;;;;;;;;;;;;;6267806;28;20371;-62
2023/07/28 16:49:38;;;;;;;;;;;;;;;;;;6267315;28;20376;-62
2023/07/28 16:52:39;;;;;;;;;;;;;;;;;;6269497;28;19925;-62
2023/07/28 16:55:39;;;;;;;;;;;;;;;;;;6269279;28;19927;-62
2023/07/28 16:58:40;;;;;;;;;;;;;;;;;;6267139;28;19956;-62
2023/07/28 17:01:40;;;;;;;;;;;;;;;;;;6269916;28;20338;-62
2023/07/28 17:04:41;;;;;;;;;;;;;;;;;;6266803;28;19928;-62
2023/07/28 17:07:43;;;;;;;;;;;;;;;;;;6268323;28;20264;-62
2023/07/28 17:10:43;;;;;;;;;;;;;;;;;;6268912;28;20421;-62
2023/07/28 17:13:44;;;;;;;;;;;;;;;;;;6268328;28;19921;-62
2023/07/28 17:16:45;;;;;;;;;;;;;;;;;;6267373;28;19929;-62
2023/07/28 17:19:45;;;;;;;;;;;;;;;;;;6264856;28;19920;-63
2023/07/28 17:22:46;;;;;;;;;;;;;;;;;;6266953;28;19946;-63
2023/07/28 17:25:46;;;;;;;;;;;;;;;;;;6271695;28;20371;-62
2023/07/28 17:28:47;;;;;;;;;;;;;;;;;;6268880;28;19941;-62
2023/07/28 17:31:47;;;;;;;;;;;;;;;;;;6270254;28;19925;-63
2023/07/28 17:34:48;;;;;;;;;;;;;;;;;;6267199;28;19925;-63
2023/07/28 17:37:49;;;;;;;;;;;;;;;;;;6266551;28;20010;-61
2023/07/28 17:40:50;;;;;;;;;;;;;;;;;;6275640;28;20490;-62
2023/07/28 17:43:50;;;;;;;;;;;;;;;;;;6274111;28;19983;-62
2023/07/28 17:46:50;;;;;;;;;;;;;;;;;;6273271;28;20387;-62
2023/07/28 17:49:51;;;;;;;;;;;;;;;;;;6277795;28;19928;-61
2023/07/28 17:52:51;;;;;;;;;;;;;;;;;;6280681;28;19928;-61
2023/07/28 17:55:52;;;;;;;;;;;;;;;;;;6279820;28;19931;-60
2023/07/28 17:58:53;;;;;;;;;;;;;;;;;;6282453;28;19972;-61
2023/07/28 18:01:53;;;;;;;;;;;;;;;;;;6291903;28;20409;-61
2023/07/28 18:04:54;;;;;;;;;;;;;;;;;;6295126;28;19926;-61
2023/07/28 18:07:54;;;;;;;;;;;;;;;;;;6289912;28;20394;-61
2023/07/28 18:10:55;;;;;;;;;;;;;;;;;;6291155;28;20378;-61
2023/07/28 18:13:56;;;;;;;;;;;;;;;;;;6294106;28;19994;-61
2023/07/28 18:16:56;;;;;;;;;;;;;;;;;;6292839;28;20465;-59
2023/07/28 18:19:57;;;;;;;;;;;;;;;;;;6294875;28;19924;-61
2023/07/28 18:22:58;;;;;;;;;;;;;;;;;;6279713;28;20299;-63
2023/07/28 18:25:58;;;;;;;;;;;;;;;;;;6288625;28;20356;-60
2023/07/28 18:28:59;;;;;;;;;;;;;;;;;;6283805;28;20073;-63
2023/07/28 18:32:00;;;;;;;;;;;;;;;;;;6287180;28;19931;-62
2023/07/28 18:35:01;;;;;;;;;;;;;;;;;;6289334;28;20458;-61
2023/07/28 18:38:01;;;;;;;;;;;;;;;;;;6287449;28;19931;-61
2023/07/28 18:41:02;;;;;;;;;;;;;;;;;;6288440;28;20557;-61
2023/07/28 18:44:02;;;;;;;;;;;;;;;;;;6286538;28;20006;-61
2023/07/28 18:47:03;;;;;;;;;;;;;;;;;;6289695;28;20114;-62
2023/07/28 18:50:04;;;;;;;;;;;;;;;;;;6290697;28;19924;-66
2023/07/28 18:53:05;;;;;;;;;;;;;;;;;;6286969;28;20473;-67
2023/07/28 18:56:06;;;;;;;;;;;;;;;;;;6282391;28;19929;-67
2023/07/28 18:59:06;;;;;;;;;;;;;;;;;;6281576;28;19969;-61
2023/07/28 19:02:07;;;;;;;;;;;;;;;;;;6314730;27;19950;-64
2023/07/28 19:05:08;;;;;;;;;;;;;;;;;;6280200;28;19928;-66
2023/07/28 19:08:09;;;;;;;;;;;;;;;;;;6284413;28;20362;-65
2023/07/28 19:11:09;;;;;;;;;;;;;;;;;;6292429;28;19928;-64
2023/07/28 19:14:10;;;;;;;;;;;;;;;;;;6295564;28;19931;-65
2023/07/28 19:17:11;;;;;;;;;;;;;;;;;;6284770;28;19924;-65
2023/07/28 19:20:11;;;;;;;;;;;;;;;;;;6281341;28;19928;-65
2023/07/28 19:23:12;;;;;;;;;;;;;;;;;;6292260;28;19924;-66
2023/07/28 19:26:12;;;;;;;;;;;;;;;;;;6286261;28;20012;-67
2023/07/28 19:29:14;;;;;;;;;;;;;;;;;;6292879;28;19935;-63
2023/07/28 19:32:14;;;;;;;;;;;;;;;;;;6282374;28;19931;-63
2023/07/28 19:35:15;;;;;;;;;;;;;;;;;;6289123;28;20330;-66
2023/07/28 19:38:15;;;;;;;;;;;;;;;;;;6283839;28;19924;-66
2023/07/28 19:41:17;;;;;;;;;;;;;;;;;;6287241;28;19952;-68
2023/07/28 19:44:17;;;;;;;;;;;;;;;;;;6290276;28;19920;-67
2023/07/28 19:47:18;;;;;;;;;;;;;;;;;;6280030;28;20376;-65
2023/07/28 19:50:18;;;;;;;;;;;;;;;;;;6288970;28;19982;-66
2023/07/28 19:53:19;;;;;;;;;;;;;;;;;;6286603;28;20128;-64
2023/07/28 19:56:19;;;;;;;;;;;;;;;;;;6282718;28;19924;-65
2023/07/28 19:59:20;;;;;;;;;;;;;;;;;;6286360;28;19931;-64
2023/07/28 20:02:21;;;;;;;;;;;;;;;;;;6295650;28;20342;-64
2023/07/28 20:05:22;;;;;;;;;;;;;;;;;;6296227;28;20371;-63
2023/07/28 20:08:22;;;;;;;;;;;;;;;;;;6301234;28;19933;-65
2023/07/28 20:11:23;;;;;;;;;;;;;;;;;;6302227;28;20113;-64
2023/07/28 20:14:23;;;;;;;;;;;;;;;;;;6297826;28;19960;-64
2023/07/28 20:17:24;;;;;;;;;;;;;;;;;;6298893;28;20421;-70
2023/07/28 20:20:25;;;;;;;;;;;;;;;;;;6293861;28;19920;-70
2023/07/28 20:23:26;;;;;;;;;;;;;;;;;;6297390;28;19926;-64
2023/07/28 20:26:26;;;;;;;;;;;;;;;;;;6301165;28;20314;-64
2023/07/28 20:29:27;;;;;;;;;;;;;;;;;;6299183;28;19982;-66
2023/07/28 20:32:27;;;;;;;;;;;;;;;;;;6294235;28;19931;-67
2023/07/28 20:35:28;;;;;;;;;;;;;;;;;;6295446;28;19930;-66